X  Chiuso Dati meteorologici dell'aviazione (METAR)     LIPX Verona-Villafranca Valerio Catullo Airport
Temperatura
13°C Temperatura
10°C Punto di rugiada
82% Umidità



Vento
14 KM/O
9 MPH
4 M/S
8 KTS



30°
NNE
Condizioni attuali

Chiaro Docce di pioggia Pioggia, Nebbia Chiaro Docce di pioggia Pioggia, Nebbia
Pressione 1006.92 (hPa) - 29.73 (inHg)
Visibilità 3.7 (miglio) - 6 (km)
Aeroporto
Codice-Aeroporto LIPX

Posizione: Verona-Villafranca Valerio Catullo Airport
Distanza: 0 (km)

Metar:
LIPX 170720Z 03008KT 6000 -SHRA BR BKN060 13/10 Q1007 RETS

Ore: 17-09-2022 09:20 CEST